Time;durP1;ratioP1;P1;durP2;ratioP2;P2;SDS_P1;SDS_P2;PMS_P1;PMS_P2;Temp;Humidity;BMP_temperature;BMP_pressure;BME280_temperature;BME280_humidity;BME280_pressure;Samples;Min_cycle;Max_cycle;Signal;HPM_P1;HPM_P2
2023/04/10 00:00:09;;;;;;;13.43;10.90;;;21.10;35.80;;;;;;5046290;28;20037;-52
2023/04/10 00:02:36;;;;;;;11.45;9.93;;;21.10;35.70;;;;;;5041967;28;20083;-48
2023/04/10 00:05:02;;;;;;;12.73;11.25;;;21.10;35.70;;;;;;5037645;28;20646;-49
2023/04/10 00:07:28;;;;;;;12.50;10.45;;;21.10;35.60;;;;;;5039961;28;20029;-47
2023/04/10 00:09:54;;;;;;;14.23;10.93;;;21.10;35.60;;;;;;5041613;28;20036;-48
2023/04/10 00:12:20;;;;;;;12.70;10.90;;;21.10;35.60;;;;;;5039054;28;20032;-48
2023/04/10 00:14:46;;;;;;;12.77;10.82;;;21.10;35.60;;;;;;5035016;28;20167;-54
2023/04/10 00:17:12;;;;;;;13.23;10.30;;;21.10;35.60;;;;;;5036253;28;20163;-50
2023/04/10 00:19:38;;;;;;;12.38;10.00;;;21.10;35.60;;;;;;5039737;28;20021;-48
2023/04/10 00:22:04;;;;;;;12.73;10.00;;;21.10;35.60;;;;;;5034822;28;20036;-50
2023/04/10 00:24:30;;;;;;;11.95;9.32;;;21.10;35.60;;;;;;5035388;28;20476;-48
2023/04/10 00:26:56;;;;;;;11.52;9.48;;;21.10;35.60;;;;;;5033364;28;20303;-51
2023/04/10 00:29:22;;;;;;;11.55;9.07;;;21.10;35.50;;;;;;5036686;28;20033;-48
2023/04/10 00:31:49;;;;;;;11.27;9.63;;;21.10;35.50;;;;;;5040587;28;20045;-53
2023/04/10 00:34:15;;;;;;;10.63;9.25;;;21.10;35.50;;;;;;5038877;28;20341;-52
2023/04/10 00:36:41;;;;;;;12.13;9.35;;;21.10;35.50;;;;;;5040080;28;20029;-49
2023/04/10 00:39:10;;;;;;;11.80;10.25;;;21.10;35.50;;;;;;5039050;28;20131;-50
2023/04/10 00:41:36;;;;;;;11.75;9.13;;;21.10;35.40;;;;;;5039616;28;20021;-48
2023/04/10 00:44:01;;;;;;;12.25;9.10;;;21.10;35.40;;;;;;5033635;28;20052;-51
2023/04/10 00:46:29;;;;;;;10.95;8.90;;;21.10;35.50;;;;;;5043451;28;20110;-50
2023/04/10 00:48:56;;;;;;;10.02;8.23;;;21.10;35.50;;;;;;5034510;28;20392;-54
2023/04/10 00:51:22;;;;;;;10.70;8.90;;;21.10;35.40;;;;;;5039526;28;20041;-54
2023/04/10 00:53:53;;;;;;;10.90;8.75;;;21.10;35.50;;;;;;5041812;28;20191;-52
2023/04/10 00:56:20;;;;;;;10.55;8.27;;;21.10;35.40;;;;;;5038087;28;20348;-53
2023/04/10 00:58:47;;;;;;;11.00;8.57;;;21.10;35.50;;;;;;5037951;28;20067;-49
2023/04/10 01:01:13;;;;;;;10.45;8.65;;;21.10;35.40;;;;;;5037801;28;20024;-50
2023/04/10 01:03:41;;;;;;;9.43;8.43;;;21.10;35.50;;;;;;5034953;28;20464;-48
2023/04/10 01:06:16;;;;;;;11.35;9.27;;;21.10;35.50;;;;;;5052068;28;20053;-50
2023/04/10 01:08:48;;;;;;;9.38;8.38;;;21.10;35.50;;;;;;5033963;28;20053;-49
2023/04/10 01:11:45;;;;;;;9.32;7.97;;;21.10;35.50;;;;;;5035523;28;20033;-50
2023/04/10 01:14:15;;;;;;;9.18;7.90;;;21.10;35.40;;;;;;5068729;28;20444;-50
2023/04/10 01:16:50;;;;;;;10.23;8.48;;;21.10;35.40;;;;;;5035912;28;20028;-48
2023/04/10 01:19:34;;;;;;;9.80;7.88;;;21.10;35.40;;;;;;5037311;28;20132;-50
2023/04/10 01:22:02;;;;;;;9.38;7.97;;;21.10;35.50;;;;;;5037905;28;20102;-50
2023/04/10 01:25:16;;;;;;;10.95;8.02;;;21.10;35.40;;;;;;5038457;28;20424;-48
2023/04/10 01:28:15;;;;;;;9.82;7.15;;;21.10;35.40;;;;;;4999197;28;20100;-49
2023/04/10 01:30:42;;;;;;;9.85;7.75;;;21.10;35.40;;;;;;5038640;28;20037;-51
2023/04/10 01:33:12;;;;;;;8.43;7.22;;;21.10;35.40;;;;;;5041117;28;20087;-50
2023/04/10 01:35:42;;;;;;;9.10;7.90;;;21.10;35.40;;;;;;5038482;28;20041;-51
2023/04/10 01:38:10;;;;;;;8.13;6.97;;;21.00;35.30;;;;;;5052525;28;20037;-48
2023/04/10 01:40:38;;;;;;;8.07;6.80;;;21.10;35.40;;;;;;5033302;28;20465;-49
2023/04/10 01:43:09;;;;;;;7.32;6.57;;;21.10;35.40;;;;;;5036565;28;20044;-53
2023/04/10 01:45:45;;;;;;;9.02;7.13;;;21.10;35.40;;;;;;5022344;28;20468;-52
2023/04/10 01:48:15;;;;;;;8.05;6.80;;;21.10;35.40;;;;;;5036282;28;20025;-51
2023/04/10 01:50:41;;;;;;;8.63;6.88;;;21.10;35.40;;;;;;5040901;28;21569;-51
2023/04/10 01:53:07;;;;;;;9.82;6.80;;;21.10;35.40;;;;;;5040629;28;20034;-49
2023/04/10 01:55:35;;;;;;;8.85;6.95;;;21.10;35.40;;;;;;5036275;28;20017;-47
2023/04/10 01:58:04;;;;;;;7.70;6.57;;;21.10;35.40;;;;;;5033720;28;20147;-50
2023/04/10 02:00:42;;;;;;;7.10;6.40;;;21.10;35.40;;;;;;5046491;28;20071;-50
2023/04/10 02:03:10;;;;;;;8.65;6.70;;;21.10;35.40;;;;;;5032358;28;20024;-50
2023/04/10 02:05:51;;;;;;;8.57;6.50;;;21.10;35.40;;;;;;5037135;28;20031;-50
2023/04/10 02:08:28;;;;;;;7.20;6.35;;;21.10;35.40;;;;;;5039436;28;20029;-49
2023/04/10 02:11:02;;;;;;;6.57;5.53;;;21.10;35.40;;;;;;5033786;28;20057;-51
2023/04/10 02:13:31;;;;;;;7.63;6.45;;;21.10;35.40;;;;;;5036422;28;20112;-48
2023/04/10 02:15:59;;;;;;;8.00;6.20;;;21.10;35.50;;;;;;5036694;28;20358;-52
2023/04/10 02:18:27;;;;;;;7.30;5.80;;;21.00;35.40;;;;;;5039626;28;20025;-51
2023/04/10 02:20:53;;;;;;;8.27;5.95;;;21.00;35.40;;;;;;5035783;28;20056;-49
2023/04/10 02:23:19;;;;;;;7.30;6.18;;;21.00;35.40;;;;;;5038548;28;20168;-52
2023/04/10 02:25:45;;;;;;;6.80;5.22;;;21.00;35.50;;;;;;5037803;28;20029;-52
2023/04/10 02:28:11;;;;;;;7.07;5.75;;;21.00;35.50;;;;;;5038878;28;20459;-51
2023/04/10 02:30:38;;;;;;;6.35;5.60;;;21.10;35.60;;;;;;5036376;28;20132;-51
2023/04/10 02:33:04;;;;;;;6.18;4.97;;;21.00;35.50;;;;;;5035908;28;20036;-50
2023/04/10 02:35:30;;;;;;;6.15;5.30;;;21.00;35.40;;;;;;5033460;28;20078;-51
2023/04/10 02:37:56;;;;;;;6.78;5.47;;;21.00;35.40;;;;;;5039921;28;20460;-51
2023/04/10 02:40:22;;;;;;;7.15;5.15;;;21.00;35.40;;;;;;5034362;28;20067;-51
2023/04/10 02:43:06;;;;;;;6.85;5.53;;;21.00;35.40;;;;;;5037769;28;20025;-52
2023/04/10 02:45:32;;;;;;;6.85;5.07;;;21.00;35.40;;;;;;5035434;28;20102;-50
2023/04/10 02:48:00;;;;;;;5.90;4.80;;;21.00;35.30;;;;;;5039303;28;20029;-52
2023/04/10 02:50:28;;;;;;;6.32;5.18;;;21.00;35.30;;;;;;5038845;28;20025;-51
2023/04/10 02:52:55;;;;;;;5.82;5.07;;;21.00;35.30;;;;;;5040488;28;20090;-49
2023/04/10 02:55:21;;;;;;;6.55;5.47;;;21.00;35.30;;;;;;5054270;28;20035;-53
2023/04/10 02:57:47;;;;;;;6.53;5.25;;;21.00;35.30;;;;;;5035152;28;20036;-52
2023/04/10 03:00:13;;;;;;;6.53;5.40;;;21.00;35.30;;;;;;5036938;28;20322;-54
2023/04/10 03:02:57;;;;;;;6.82;5.13;;;21.00;35.20;;;;;;5034600;28;20028;-50
2023/04/10 03:05:27;;;;;;;5.22;4.65;;;21.00;35.20;;;;;;5034837;28;20076;-46
2023/04/10 03:07:54;;;;;;;5.43;4.88;;;21.00;35.30;;;;;;5038567;28;20029;-47
2023/04/10 03:10:20;;;;;;;6.57;5.45;;;21.00;35.20;;;;;;5071065;28;20037;-46
2023/04/10 03:12:47;;;;;;;5.68;5.03;;;21.00;35.20;;;;;;5039853;28;20035;-46
2023/04/10 03:15:13;;;;;;;6.45;5.57;;;21.00;35.20;;;;;;5042736;28;20033;-46
2023/04/10 03:17:39;;;;;;;5.60;5.00;;;21.00;35.20;;;;;;5042938;28;20024;-53
2023/04/10 03:20:06;;;;;;;6.45;5.47;;;21.00;35.20;;;;;;5039709;28;20064;-50
2023/04/10 03:22:33;;;;;;;7.47;5.65;;;21.00;35.20;;;;;;5039693;28;20056;-48
2023/04/10 03:25:00;;;;;;;6.40;5.50;;;21.00;35.10;;;;;;5035988;28;20025;-47
2023/04/10 03:27:26;;;;;;;7.35;5.88;;;21.00;35.20;;;;;;5038034;28;20448;-50
2023/04/10 03:29:51;;;;;;;6.68;5.30;;;21.00;35.10;;;;;;5038651;28;20025;-48
2023/04/10 03:32:17;;;;;;;8.93;5.40;;;21.00;35.10;;;;;;5057903;28;20041;-46
2023/04/10 03:34:44;;;;;;;6.00;5.03;;;21.00;35.10;;;;;;5034701;28;20030;-52
2023/04/10 03:37:09;;;;;;;6.45;5.53;;;21.00;35.10;;;;;;5036225;28;20036;-53
2023/04/10 03:39:36;;;;;;;5.80;5.15;;;21.00;35.00;;;;;;5035972;28;20041;-51
2023/04/10 03:42:02;;;;;;;5.82;4.95;;;21.00;35.10;;;;;;5041393;28;20025;-48
2023/04/10 03:44:28;;;;;;;6.80;5.50;;;21.00;35.10;;;;;;5036755;28;20120;-50
2023/04/10 03:46:54;;;;;;;6.05;5.40;;;21.00;35.10;;;;;;5040391;28;20112;-49
2023/04/10 03:49:20;;;;;;;6.25;5.30;;;21.00;35.10;;;;;;5036083;28;20032;-54
2023/04/10 03:51:46;;;;;;;6.53;5.10;;;21.00;35.00;;;;;;5044271;28;20052;-48
2023/04/10 03:54:12;;;;;;;6.50;5.40;;;21.00;35.00;;;;;;5035806;28;20044;-52
2023/04/10 03:56:38;;;;;;;6.65;5.68;;;21.00;35.00;;;;;;5037670;28;20025;-48
2023/04/10 03:59:04;;;;;;;5.75;5.15;;;21.00;35.00;;;;;;5035233;28;20021;-49
2023/04/10 04:01:33;;;;;;;5.57;4.97;;;21.00;35.00;;;;;;5039442;28;20029;-46
2023/04/10 04:04:05;;;;;;;6.22;5.50;;;21.00;35.00;;;;;;5040489;28;20132;-53
2023/04/10 04:06:56;;;;;;;6.50;5.43;;;21.00;35.00;;;;;;5035892;28;20090;-51
2023/04/10 04:09:44;;;;;;;5.85;4.78;;;20.90;34.90;;;;;;5040005;28;20025;-49
2023/04/10 04:12:32;;;;;;;6.07;5.18;;;20.90;34.90;;;;;;5038002;28;20060;-47
2023/04/10 04:15:07;;;;;;;6.47;5.45;;;20.90;34.90;;;;;;5039414;28;20024;-48
2023/04/10 04:17:56;;;;;;;6.15;5.00;;;20.90;34.90;;;;;;5035298;28;20115;-51
2023/04/10 04:20:34;;;;;;;7.05;5.00;;;20.90;34.90;;;;;;5037996;28;20057;-49
2023/04/10 04:23:20;;;;;;;6.68;5.40;;;20.90;34.90;;;;;;5034748;28;20068;-47
2023/04/10 04:26:05;;;;;;;5.90;5.30;;;20.90;34.90;;;;;;5036792;28;20025;-52
2023/04/10 04:28:59;;;;;;;6.00;5.40;;;20.90;34.80;;;;;;5033650;28;20107;-47
2023/04/10 04:31:45;;;;;;;5.45;4.57;;;20.90;34.80;;;;;;5038750;28;20052;-48
2023/04/10 04:34:19;;;;;;;6.63;5.07;;;20.90;34.80;;;;;;5057950;28;20171;-52
2023/04/10 04:37:20;;;;;;;6.35;5.05;;;20.90;34.80;;;;;;5018427;28;20044;-50
2023/04/10 04:40:21;;;;;;;5.50;4.90;;;20.90;34.80;;;;;;5016071;28;20044;-48
2023/04/10 04:43:00;;;;;;;5.72;5.05;;;20.80;34.70;;;;;;5030594;28;20034;-50
2023/04/10 04:45:55;;;;;;;;;;;20.90;34.80;;;;;;5036952;28;20049;-51
2023/04/10 04:48:47;;;;;;;5.97;4.85;;;20.80;34.70;;;;;;5039154;28;20355;-51
2023/04/10 04:51:39;;;;;;;6.15;5.05;;;20.80;34.70;;;;;;5039813;28;20047;-48
2023/04/10 04:54:13;;;;;;;5.45;4.70;;;20.90;34.90;;;;;;5038000;28;20055;-51
2023/04/10 04:56:39;;;;;;;5.03;4.53;;;20.80;34.80;;;;;;5035687;28;20025;-49
2023/04/10 04:59:17;;;;;;;5.93;4.63;;;20.80;34.90;;;;;;5042117;28;20033;-48
2023/04/10 05:01:58;;;;;;;6.28;4.80;;;20.80;34.90;;;;;;5036196;28;20037;-55
2023/04/10 05:04:42;;;;;;;5.20;4.63;;;20.80;34.90;;;;;;5038265;28;20132;-54
2023/04/10 05:07:40;;;;;;;7.63;4.70;;;20.80;34.80;;;;;;5042586;28;20061;-53
2023/04/10 05:10:22;;;;;;;5.78;4.45;;;20.90;34.90;;;;;;5034231;28;20045;-48
2023/04/10 05:13:20;;;;;;;6.10;4.65;;;20.80;34.80;;;;;;5037737;28;20126;-53
2023/04/10 05:15:54;;;;;;;4.93;4.43;;;20.80;34.80;;;;;;5032757;28;20112;-51
2023/04/10 05:18:22;;;;;;;5.72;4.65;;;20.80;34.70;;;;;;5038311;28;20411;-51
2023/04/10 05:21:09;;;;;;;5.43;4.70;;;20.80;34.70;;;;;;5037287;28;20105;-48
2023/04/10 05:23:53;;;;;;;5.32;4.43;;;20.80;34.70;;;;;;5034061;28;20091;-52
2023/04/10 05:26:30;;;;;;;5.38;4.55;;;20.80;34.70;;;;;;5036511;28;20030;-51
2023/04/10 05:29:15;;;;;;;5.95;4.43;;;20.80;34.70;;;;;;5038107;28;20060;-47
2023/04/10 05:31:59;;;;;;;4.70;4.20;;;20.80;34.70;;;;;;5035457;28;20048;-49
2023/04/10 05:34:42;;;;;;;4.97;4.03;;;20.80;34.70;;;;;;5038127;28;20155;-52
2023/04/10 05:37:12;;;;;;;5.28;4.65;;;20.80;34.60;;;;;;5036551;28;20086;-51
2023/04/10 05:39:43;;;;;;;4.65;3.65;;;20.80;34.60;;;;;;5038616;28;20079;-49
2023/04/10 05:42:27;;;;;;;;;;;20.80;34.70;;;;;;5040324;28;20353;-51
2023/04/10 05:45:22;;;;;;;5.35;4.03;;;20.80;34.60;;;;;;5040525;28;20020;-51
2023/04/10 05:48:06;;;;;;;5.20;4.70;;;20.80;34.60;;;;;;5040176;28;20379;-49
2023/04/10 05:50:37;;;;;;;5.85;4.72;;;20.80;34.60;;;;;;5034989;28;20041;-48
2023/04/10 05:53:30;;;;;;;5.25;4.25;;;20.80;34.60;;;;;;5033888;28;20048;-50
2023/04/10 05:56:15;;;;;;;5.25;4.32;;;20.80;34.70;;;;;;5033374;28;20467;-49
2023/04/10 05:58:46;;;;;;;5.00;4.10;;;20.80;34.60;;;;;;5017532;28;20112;-48
2023/04/10 06:01:40;;;;;;;5.20;3.63;;;20.80;34.60;;;;;;5037258;28;20033;-50
2023/04/10 06:04:06;;;;;;;4.82;3.83;;;20.80;34.60;;;;;;5039372;28;20029;-48
2023/04/10 06:06:33;;;;;;;4.45;3.63;;;20.80;34.60;;;;;;5038330;28;20032;-53
2023/04/10 06:08:59;;;;;;;5.10;4.20;;;20.80;34.70;;;;;;5034835;28;20033;-49
2023/04/10 06:11:25;;;;;;;4.20;3.80;;;20.90;34.80;;;;;;5032787;28;20045;-49
2023/04/10 06:13:53;;;;;;;4.65;3.85;;;20.80;34.70;;;;;;5037162;28;20054;-53
2023/04/10 06:16:25;;;;;;;4.18;3.78;;;20.90;34.70;;;;;;5037598;28;20384;-49
2023/04/10 06:18:52;;;;;;;4.72;4.05;;;20.90;34.70;;;;;;5035549;28;20076;-48
2023/04/10 06:21:18;;;;;;;4.25;3.75;;;20.90;34.60;;;;;;5036831;28;20345;-51
2023/04/10 06:23:45;;;;;;;3.97;3.58;;;20.90;34.50;;;;;;5037337;28;20104;-49
2023/04/10 06:26:11;;;;;;;4.32;3.47;;;20.90;34.50;;;;;;5036675;28;20048;-48
2023/04/10 06:28:37;;;;;;;4.10;3.30;;;20.90;34.50;;;;;;5038139;28;20029;-47
2023/04/10 06:31:06;;;;;;;4.45;3.25;;;21.00;34.50;;;;;;5039701;28;20043;-46
2023/04/10 06:33:37;;;;;;;3.70;3.30;;;21.00;34.50;;;;;;5071279;28;20029;-48
2023/04/10 06:36:06;;;;;;;4.38;3.30;;;21.00;34.50;;;;;;5051770;28;20057;-48
2023/04/10 06:38:37;;;;;;;4.07;3.00;;;21.00;34.50;;;;;;5044698;28;20013;-49
2023/04/10 06:41:05;;;;;;;5.15;3.28;;;21.00;34.50;;;;;;5038543;28;20222;-54
2023/04/10 06:43:33;;;;;;;3.95;3.22;;;21.10;34.50;;;;;;5039028;28;20049;-53
2023/04/10 06:45:59;;;;;;;4.65;3.33;;;21.10;34.50;;;;;;5041132;28;20387;-48
2023/04/10 06:48:25;;;;;;;3.90;3.10;;;21.10;34.40;;;;;;5036156;28;20083;-49
2023/04/10 06:50:51;;;;;;;5.88;4.00;;;21.20;34.40;;;;;;5046133;28;20127;-47
2023/04/10 06:53:17;;;;;;;3.90;3.40;;;21.20;34.30;;;;;;5039666;28;20365;-46
2023/04/10 06:55:43;;;;;;;3.88;3.45;;;21.30;34.40;;;;;;5039019;28;20108;-48
2023/04/10 06:58:08;;;;;;;5.55;4.32;;;21.20;34.30;;;;;;5046858;28;20091;-51
2023/04/10 07:00:34;;;;;;;5.35;4.47;;;21.30;34.30;;;;;;5044456;28;20394;-50
2023/04/10 07:03:01;;;;;;;6.78;5.63;;;21.30;34.30;;;;;;5054594;28;20086;-54
2023/04/10 07:05:27;;;;;;;6.90;6.15;;;21.30;34.40;;;;;;5044386;28;20033;-53
2023/04/10 07:07:53;;;;;;;7.60;6.45;;;21.40;34.50;;;;;;5039931;28;20036;-54
2023/04/10 07:10:21;;;;;;;7.95;6.65;;;21.40;34.50;;;;;;5042479;28;20040;-53
2023/04/10 07:12:49;;;;;;;9.07;7.40;;;21.40;34.60;;;;;;5039825;28;20029;-50
2023/04/10 07:15:21;;;;;;;10.05;6.72;;;21.40;34.60;;;;;;5045225;28;20025;-51
2023/04/10 07:17:55;;;;;;;9.10;7.28;;;21.40;34.70;;;;;;5042072;28;21464;-53
2023/04/10 07:20:27;;;;;;;9.23;7.82;;;21.40;34.70;;;;;;5052304;28;20024;-49
2023/04/10 07:23:00;;;;;;;10.50;8.95;;;21.40;34.70;;;;;;5042629;28;20044;-51
2023/04/10 07:25:33;;;;;;;10.68;9.10;;;21.50;34.70;;;;;;5049341;28;20033;-49
2023/04/10 07:28:02;;;;;;;10.55;9.23;;;21.50;34.80;;;;;;5043043;28;20056;-51
2023/04/10 07:30:36;;;;;;;10.43;8.68;;;21.50;34.80;;;;;;5050652;28;20048;-48
2023/04/10 07:33:10;;;;;;;11.13;9.55;;;21.50;34.80;;;;;;5060858;28;20028;-51
2023/04/10 07:35:41;;;;;;;11.15;8.98;;;21.50;34.80;;;;;;5057989;28;20326;-49
2023/04/10 07:38:12;;;;;;;9.60;8.60;;;21.50;34.80;;;;;;5056675;28;20021;-46
2023/04/10 07:40:40;;;;;;;9.38;8.35;;;21.60;35.00;;;;;;5057247;28;20032;-51
2023/04/10 07:43:09;;;;;;;10.48;8.90;;;21.50;35.00;;;;;;5049529;28;20021;-46
2023/04/10 07:45:38;;;;;;;10.52;9.00;;;21.60;35.10;;;;;;5064162;28;20351;-48
2023/04/10 07:48:07;;;;;;;10.35;9.15;;;21.60;35.10;;;;;;5046376;28;20047;-49
2023/04/10 07:50:36;;;;;;;11.00;8.80;;;21.60;35.20;;;;;;5041891;28;20021;-49
2023/04/10 07:53:09;;;;;;;10.52;8.50;;;21.60;35.10;;;;;;5046190;28;20037;-50
2023/04/10 07:55:44;;;;;;;10.13;8.40;;;21.60;35.10;;;;;;5040340;28;20026;-51
2023/04/10 07:58:18;;;;;;;;;;;21.60;35.00;;;;;;5044208;28;20025;-45
2023/04/10 08:00:47;;;;;;;10.70;7.75;;;21.60;34.90;;;;;;5046438;28;19958;-48
2023/04/10 08:03:16;;;;;;;9.35;7.70;;;21.60;34.80;;;;;;5048668;28;20025;-50
2023/04/10 08:05:48;;;;;;;10.40;8.02;;;21.60;34.70;;;;;;5067786;28;20087;-50
2023/04/10 08:08:21;;;;;;;10.05;7.78;;;21.60;34.70;;;;;;5044333;28;20033;-49
2023/04/10 08:10:50;;;;;;;9.82;8.25;;;21.60;34.60;;;;;;5042229;28;20152;-51
2023/04/10 08:13:16;;;;;;;9.57;7.82;;;21.60;34.50;;;;;;5055486;28;20032;-47
2023/04/10 08:15:43;;;;;;;11.88;7.60;;;21.60;34.50;;;;;;5050565;28;20049;-51
2023/04/10 08:18:09;;;;;;;8.55;6.70;;;21.60;34.40;;;;;;5041708;28;20037;-48
2023/04/10 08:20:36;;;;;;;8.05;7.00;;;21.60;34.30;;;;;;5042260;28;20044;-54
2023/04/10 08:23:03;;;;;;;8.00;7.00;;;21.60;34.30;;;;;;5051920;28;20033;-52
2023/04/10 08:25:30;;;;;;;8.20;6.75;;;21.60;34.20;;;;;;5056588;28;20035;-53
2023/04/10 08:27:59;;;;;;;9.18;7.30;;;21.60;34.20;;;;;;5057697;28;20033;-50
2023/04/10 08:30:32;;;;;;;8.07;6.90;;;21.60;34.10;;;;;;5058535;28;20158;-50
2023/04/10 08:32:59;;;;;;;7.55;6.72;;;21.60;34.10;;;;;;5058526;28;20041;-50
2023/04/10 08:35:26;;;;;;;8.75;6.85;;;21.60;34.00;;;;;;5041745;28;20360;-48
2023/04/10 08:37:53;;;;;;;7.88;6.85;;;21.60;33.90;;;;;;5046445;28;20032;-51
2023/04/10 08:40:20;;;;;;;8.98;7.32;;;21.60;33.90;;;;;;5039896;28;20104;-54
2023/04/10 08:42:46;;;;;;;8.15;6.82;;;21.60;33.90;;;;;;5045569;28;20033;-47
2023/04/10 08:45:13;;;;;;;8.02;6.70;;;21.70;33.90;;;;;;5055635;28;20155;-48
2023/04/10 08:47:41;;;;;;;8.15;7.03;;;21.70;33.80;;;;;;5056235;28;20021;-50
2023/04/10 08:50:12;;;;;;;7.95;6.82;;;21.70;33.80;;;;;;5045508;28;20112;-49
2023/04/10 08:52:44;;;;;;;8.73;7.10;;;21.70;33.80;;;;;;5037184;28;20468;-50
2023/04/10 08:55:13;;;;;;;8.13;6.75;;;21.70;33.70;;;;;;5047899;28;20039;-53
2023/04/10 08:57:44;;;;;;;9.10;6.95;;;21.70;33.70;;;;;;5056230;28;20167;-50
2023/04/10 09:00:15;;;;;;;9.25;7.75;;;21.70;33.70;;;;;;5046979;28;20025;-51
2023/04/10 09:02:45;;;;;;;8.73;6.90;;;21.70;33.80;;;;;;5046139;28;20135;-49
2023/04/10 09:05:16;;;;;;;9.02;7.43;;;21.70;33.60;;;;;;5050972;28;20029;-49
2023/04/10 09:07:49;;;;;;;10.35;7.55;;;21.70;33.70;;;;;;5061415;28;20028;-53
2023/04/10 09:10:25;;;;;;;9.93;8.32;;;21.70;33.70;;;;;;5063692;28;20110;-51
2023/04/10 09:12:57;;;;;;;9.00;8.10;;;21.70;33.70;;;;;;5038289;28;20036;-54
2023/04/10 09:15:28;;;;;;;9.07;7.88;;;21.70;33.70;;;;;;5048851;28;20081;-51
2023/04/10 09:18:02;;;;;;;11.25;8.95;;;21.70;33.70;;;;;;5041978;28;20100;-51
2023/04/10 09:20:32;;;;;;;10.05;8.45;;;21.70;33.70;;;;;;5046778;28;20048;-47
2023/04/10 09:23:19;;;;;;;10.07;8.77;;;21.70;33.70;;;;;;5040494;28;20021;-50
2023/04/10 09:25:49;;;;;;;9.70;8.50;;;21.70;33.70;;;;;;5036746;28;20033;-49
2023/04/10 09:28:20;;;;;;;9.65;8.38;;;21.70;33.70;;;;;;5039413;28;20022;-47
2023/04/10 09:30:49;;;;;;;11.75;9.77;;;21.70;33.70;;;;;;5062798;28;20059;-54
2023/04/10 09:33:34;;;;;;;16.08;12.45;;;21.70;33.80;;;;;;5053594;28;20028;-58
2023/04/10 09:36:03;;;;;;;21.80;16.92;;;21.80;34.10;;;;;;5034993;28;20029;-46
2023/04/10 09:38:33;;;;;;;20.23;16.55;;;21.80;34.50;;;;;;5047538;28;20028;-53
2023/04/10 09:41:07;;;;;;;21.52;17.75;;;21.70;34.70;;;;;;5046721;28;20029;-56
2023/04/10 09:43:33;;;;;;;21.80;18.45;;;21.80;35.00;;;;;;5035064;28;20033;-51
2023/04/10 09:45:59;;;;;;;20.20;16.38;;;21.80;35.10;;;;;;5040663;28;20089;-53
2023/04/10 09:48:25;;;;;;;21.20;17.77;;;21.80;35.20;;;;;;5061722;28;20048;-50
2023/04/10 09:50:51;;;;;;;21.38;18.63;;;21.80;35.20;;;;;;5052930;28;20444;-53
2023/04/10 09:53:19;;;;;;;20.95;17.98;;;21.80;35.30;;;;;;5053763;28;20064;-51
2023/04/10 09:55:47;;;;;;;21.15;18.17;;;21.80;35.30;;;;;;5062582;28;20020;-50
2023/04/10 09:58:14;;;;;;;20.08;16.42;;;21.80;35.30;;;;;;5052815;28;20445;-50
2023/04/10 10:00:47;;;;;;;19.67;17.42;;;21.80;35.30;;;;;;5046171;28;20039;-46
2023/04/10 10:03:17;;;;;;;22.25;18.35;;;21.80;35.20;;;;;;5052038;28;20414;-52
2023/04/10 10:05:46;;;;;;;21.92;18.67;;;21.80;35.20;;;;;;5054255;28;20100;-51
2023/04/10 10:08:14;;;;;;;22.83;18.95;;;21.80;35.20;;;;;;5052456;28;20047;-55
2023/04/10 10:10:52;;;;;;;20.95;18.55;;;21.80;35.20;;;;;;5052548;28;20029;-50
2023/04/10 10:13:47;;;;;;;22.60;19.15;;;21.80;35.20;;;;;;5052377;28;20033;-54
2023/04/10 10:16:34;;;;;;;23.98;19.73;;;21.90;35.30;;;;;;5050522;28;20094;-49
2023/04/10 10:19:23;;;;;;;23.75;20.63;;;21.80;35.20;;;;;;5036750;28;20393;-47
2023/04/10 10:21:50;;;;;;;26.80;21.70;;;21.90;35.30;;;;;;5036843;28;20033;-51
2023/04/10 10:24:19;;;;;;;25.35;22.05;;;21.80;35.30;;;;;;5032406;28;20063;-49
2023/04/10 10:26:46;;;;;;;25.77;21.98;;;21.90;35.40;;;;;;5038487;28;20042;-46
2023/04/10 10:29:16;;;;;;;31.13;24.13;;;21.90;35.40;;;;;;5037208;28;20029;-51
2023/04/10 10:31:42;;;;;;;27.98;24.65;;;21.80;35.40;;;;;;5038316;28;20038;-46
2023/04/10 10:34:08;;;;;;;31.00;24.73;;;21.90;35.50;;;;;;5038923;28;20055;-51
2023/04/10 10:36:36;;;;;;;30.23;25.27;;;21.90;35.50;;;;;;5041450;28;20445;-48
2023/04/10 10:39:14;;;;;;;30.45;25.15;;;21.90;35.60;;;;;;5035202;28;20021;-49
2023/04/10 10:41:50;;;;;;;29.60;24.10;;;21.90;35.60;;;;;;5038057;28;20111;-47
2023/04/10 10:44:51;;;;;;;27.88;23.80;;;21.90;35.60;;;;;;5039876;28;20038;-49
2023/04/10 10:47:23;;;;;;;28.85;24.55;;;21.90;35.60;;;;;;5045240;28;20105;-49
2023/04/10 10:50:15;;;;;;;29.65;24.48;;;21.90;35.60;;;;;;5037755;28;20029;-51
2023/04/10 10:52:42;;;;;;;28.23;23.55;;;21.90;35.60;;;;;;5037587;28;20049;-48
2023/04/10 10:55:24;;;;;;;31.08;26.00;;;21.90;35.60;;;;;;5042897;28;20028;-46
2023/04/10 10:57:51;;;;;;;30.73;26.38;;;21.90;35.70;;;;;;5043121;28;20474;-49
2023/04/10 11:00:17;;;;;;;29.70;26.25;;;21.90;35.70;;;;;;5036418;28;20029;-45
2023/04/10 11:02:43;;;;;;;27.98;24.48;;;21.90;35.70;;;;;;5038538;28;20105;-45
2023/04/10 11:05:09;;;;;;;29.88;25.48;;;22.00;35.90;;;;;;5036610;28;20116;-46
2023/04/10 11:07:59;;;;;;;30.25;25.58;;;22.00;35.80;;;;;;5038964;28;20021;-48
2023/04/10 11:11:00;;;;;;;30.52;25.70;;;21.90;35.70;;;;;;5039091;28;20059;-53
2023/04/10 11:13:26;;;;;;;30.08;25.13;;;22.00;35.90;;;;;;5047555;28;20036;-51
2023/04/10 11:15:53;;;;;;;31.13;26.15;;;22.00;35.80;;;;;;5054128;28;20115;-49
2023/04/10 11:18:22;;;;;;;32.15;24.77;;;22.00;35.80;;;;;;5051601;28;20352;-51
2023/04/10 11:21:10;;;;;;;31.30;27.00;;;22.00;35.90;;;;;;5051842;28;20036;-48
2023/04/10 11:23:57;;;;;;;32.42;25.88;;;22.00;35.90;;;;;;5046001;28;20036;-45
2023/04/10 11:29:05;;;;;;;31.85;26.20;;;22.00;36.00;;;;;;5049280;28;20033;-49
2023/04/10 11:31:32;;;;;;;31.65;25.35;;;22.00;36.00;;;;;;5051574;28;20041;-51
2023/04/10 11:34:06;;;;;;;31.63;26.45;;;22.10;36.10;;;;;;5050428;28;20357;-46
2023/04/10 11:36:42;;;;;;;31.92;27.25;;;22.10;36.10;;;;;;5054806;28;20452;-48
2023/04/10 11:39:14;;;;;;;32.30;27.40;;;22.10;36.10;;;;;;5055246;28;20477;-53
2023/04/10 11:41:49;;;;;;;31.75;26.30;;;22.10;36.10;;;;;;5042407;28;20122;-48
2023/04/10 11:44:24;;;;;;;33.17;27.23;;;22.10;36.10;;;;;;5049235;28;20056;-48
2023/04/10 11:46:50;;;;;;;31.67;26.88;;;22.10;36.10;;;;;;5037763;28;20060;-50
2023/04/10 11:49:29;;;;;;;37.35;29.00;;;22.10;36.20;;;;;;5037638;28;20045;-47
2023/04/10 11:51:55;;;;;;;35.53;28.25;;;22.20;36.30;;;;;;5037816;28;20519;-45
2023/04/10 11:54:25;;;;;;;34.15;28.95;;;22.20;36.40;;;;;;5043992;28;20464;-48
2023/04/10 11:56:59;;;;;;;35.67;29.20;;;22.20;36.40;;;;;;5042293;28;20356;-50
2023/04/10 11:59:27;;;;;;;33.72;28.77;;;22.20;36.40;;;;;;5053790;28;20098;-46
2023/04/10 12:02:08;;;;;;;33.88;28.05;;;22.20;36.30;;;;;;5052498;28;20068;-52
2023/04/10 12:04:34;;;;;;;33.05;27.90;;;22.20;36.30;;;;;;5049612;28;20040;-51
2023/04/10 12:07:00;;;;;;;32.28;27.02;;;22.20;36.30;;;;;;5054220;28;20029;-51
2023/04/10 12:09:27;;;;;;;34.35;28.15;;;22.20;36.30;;;;;;5063434;28;20040;-53
2023/04/10 12:12:14;;;;;;;35.08;29.20;;;22.20;36.20;;;;;;5055328;28;20037;-50
2023/04/10 12:14:41;;;;;;;35.47;26.77;;;22.20;37.20;;;;;;5051535;28;20037;-50
2023/04/10 12:17:10;;;;;;;31.05;27.27;;;22.30;37.50;;;;;;5055878;28;20120;-48
2023/04/10 12:19:38;;;;;;;31.40;26.50;;;22.30;37.40;;;;;;5053427;28;20372;-48
2023/04/10 12:22:04;;;;;;;34.45;26.67;;;22.30;37.20;;;;;;5047067;28;20025;-50
2023/04/10 12:24:45;;;;;;;33.17;28.38;;;22.30;37.00;;;;;;5050495;28;20025;-48
2023/04/10 12:27:26;;;;;;;35.20;28.20;;;22.30;36.90;;;;;;5050401;28;20093;-50
2023/04/10 12:29:56;;;;;;;35.55;28.25;;;22.30;36.80;;;;;;5036916;28;21024;-47
2023/04/10 12:32:23;;;;;;;32.17;26.92;;;22.30;36.70;;;;;;5049298;28;20106;-48
2023/04/10 12:34:51;;;;;;;34.72;29.05;;;22.30;36.60;;;;;;5053207;28;20056;-51
2023/04/10 12:37:17;;;;;;;32.95;27.50;;;22.30;36.60;;;;;;5048874;28;20081;-48
2023/04/10 12:39:44;;;;;;;33.83;26.90;;;22.30;36.50;;;;;;5050517;28;20036;-50
2023/04/10 12:42:25;;;;;;;34.03;28.10;;;22.40;36.50;;;;;;5053259;28;20021;-56
2023/04/10 12:45:00;;;;;;;31.75;25.90;;;22.40;36.60;;;;;;5049918;28;20551;-47
2023/04/10 12:47:28;;;;;;;32.70;26.77;;;22.40;36.60;;;;;;5043869;28;20032;-46
2023/04/10 12:50:09;;;;;;;31.42;27.45;;;22.40;36.70;;;;;;5049993;28;20376;-49
2023/04/10 12:52:37;;;;;;;32.25;27.60;;;22.40;36.60;;;;;;5052375;28;20083;-50
2023/04/10 12:55:22;;;;;;;33.58;28.90;;;22.40;36.50;;;;;;5053207;28;20029;-46
2023/04/10 12:57:50;;;;;;;34.78;28.88;;;22.40;36.30;;;;;;5052722;28;20049;-53
2023/04/10 13:00:19;;;;;;;33.45;28.73;;;22.40;36.30;;;;;;5054821;28;20457;-48
2023/04/10 13:02:46;;;;;;;34.35;28.27;;;22.50;36.30;;;;;;5055254;28;20160;-50
2023/04/10 13:05:12;;;;;;;33.08;28.55;;;22.40;36.20;;;;;;5054982;28;20090;-52
2023/04/10 13:07:38;;;;;;;34.38;28.83;;;22.50;36.80;;;;;;5050366;28;20368;-49